Time;durP1;ratioP1;P1;durP2;ratioP2;P2;SDS_P1;SDS_P2;PMS_P1;PMS_P2;Temp;Humidity;BMP_temperature;BMP_pressure;BME280_temperature;BME280_humidity;BME280_pressure;Samples;Min_cycle;Max_cycle;Signal;HPM_P1;HPM_P2
2021/07/26 00:00:02;;;;;;;569.78;498.60;;;;;;;;;;4944480;29;20024;-77
2021/07/26 00:02:28;;;;;;;566.33;492.00;;;;;;;;;;4948969;29;20074;-77
2021/07/26 00:04:54;;;;;;;568.20;492.10;;;;;;;;;;4946801;29;20289;-77
2021/07/26 00:07:20;;;;;;;569.95;490.15;;;;;;;;;;4950143;29;20082;-79
2021/07/26 00:09:46;;;;;;;569.60;494.65;;;;;;;;;;4929959;29;20489;-77
2021/07/26 00:12:12;;;;;;;570.03;491.63;;;;;;;;;;4946861;29;20023;-79
2021/07/26 00:14:38;;;;;;;568.38;496.80;;;;;;;;;;4932589;29;20023;-77
2021/07/26 00:17:04;;;;;;;567.97;496.98;;;;;;;;;;4930937;29;20058;-78
2021/07/26 00:19:30;;;;;;;569.45;498.80;;;;;;;;;;4949849;29;20054;-77
2021/07/26 00:21:56;;;;;;;566.65;492.48;;;;;;;;;;4928428;29;20038;-78
2021/07/26 00:24:22;;;;;;;567.92;495.90;;;;;;;;;;4931259;29;20071;-78
2021/07/26 00:26:48;;;;;;;565.53;492.23;;;;;;;;;;4931533;29;20618;-78
2021/07/26 00:29:14;;;;;;;566.50;496.98;;;;;;;;;;4932908;29;20024;-78
2021/07/26 00:31:40;;;;;;;566.15;494.20;;;;;;;;;;4948597;29;20130;-78
2021/07/26 00:34:25;;;;;;;569.55;497.85;;;;;;;;;;4946121;29;20578;-78
2021/07/26 00:36:55;;;;;;;566.72;490.48;;;;;;;;;;4929090;29;20090;-78
2021/07/26 00:39:25;;;;;;;565.95;490.88;;;;;;;;;;4945234;29;20087;-78
2021/07/26 00:41:52;;;;;;;567.40;494.55;;;;;;;;;;4946228;29;20341;-77
2021/07/26 00:44:19;;;;;;;567.28;496.38;;;;;;;;;;4946312;28;20130;-78
2021/07/26 00:46:46;;;;;;;568.05;495.55;;;;;;;;;;4946995;29;20535;-77
2021/07/26 00:49:14;;;;;;;565.03;490.85;;;;;;;;;;4927945;29;20031;-77
2021/07/26 00:51:41;;;;;;;565.30;491.08;;;;;;;;;;4942311;28;20028;-78
2021/07/26 00:54:08;;;;;;;564.47;491.55;;;;;;;;;;4948352;29;20031;-78
2021/07/26 00:56:34;;;;;;;566.35;493.83;;;;;;;;;;4949602;29;20344;-78
2021/07/26 00:59:00;;;;;;;567.25;498.60;;;;;;;;;;4931333;29;20410;-79
2021/07/26 01:01:26;;;;;;;563.67;491.88;;;;;;;;;;4934978;29;20046;-77
2021/07/26 01:03:52;;;;;;;565.67;493.55;;;;;;;;;;4936763;29;20433;-78
2021/07/26 01:06:19;;;;;;;567.92;498.52;;;;;;;;;;4953937;29;20035;-78
2021/07/26 01:08:46;;;;;;;574.08;500.95;;;;;;;;;;4948214;29;20031;-78
2021/07/26 01:11:17;;;;;;;566.78;497.17;;;;;;;;;;4954212;29;20030;-78
2021/07/26 01:13:43;;;;;;;572.63;491.08;;;;;;;;;;4936990;29;20031;-77
2021/07/26 01:16:09;;;;;;;568.65;501.15;;;;;;;;;;4936720;29;20042;-78
2021/07/26 01:18:36;;;;;;;566.63;491.42;;;;;;;;;;4950724;29;20031;-78
2021/07/26 01:21:02;;;;;;;568.72;500.63;;;;;;;;;;4953291;29;20034;-78
2021/07/26 01:23:48;;;;;;;569.63;502.73;;;;;;;;;;4934817;29;20039;-78
2021/07/26 01:26:15;;;;;;;566.90;495.40;;;;;;;;;;4944041;29;20066;-78
2021/07/26 01:28:46;;;;;;;566.55;493.70;;;;;;;;;;4932220;29;20015;-79
2021/07/26 01:31:12;;;;;;;565.42;489.20;;;;;;;;;;4935813;29;20072;-78
2021/07/26 01:33:48;;;;;;;568.70;498.38;;;;;;;;;;4953485;29;20027;-79
2021/07/26 01:36:15;;;;;;;566.47;491.33;;;;;;;;;;4953370;29;20027;-78
2021/07/26 01:38:43;;;;;;;568.92;494.83;;;;;;;;;;4946729;29;20085;-79
2021/07/26 01:41:17;;;;;;;568.08;489.42;;;;;;;;;;4949928;29;20034;-79
2021/07/26 01:46:46;;;;;;;568.40;490.77;;;;;;;;;;4943499;29;20078;-79
2021/07/26 01:49:30;;;;;;;565.10;476.50;;;;;;;;;;4936580;29;20027;-80
2021/07/26 01:51:57;;;;;;;566.08;481.02;;;;;;;;;;4935505;29;20114;-79
2021/07/26 01:54:23;;;;;;;568.55;485.60;;;;;;;;;;4949016;29;20031;-79
2021/07/26 01:57:14;;;;;;;567.95;487.13;;;;;;;;;;4948764;29;20098;-79
2021/07/26 01:59:41;;;;;;;567.85;483.02;;;;;;;;;;4952695;29;20024;-79
2021/07/26 02:02:07;;;;;;;936.33;551.70;;;;;;;;;;4951702;29;20031;-79
2021/07/26 02:04:33;;;;;;;1999.90;999.90;;;;;;;;;;4936316;29;20752;-80
2021/07/26 02:06:59;;;;;;;1999.90;999.90;;;;;;;;;;4934845;29;20027;-79
2021/07/26 02:12:37;;;;;;;1999.90;999.90;;;;;;;;;;4954055;28;20026;-80
2021/07/26 02:15:04;;;;;;;562.10;467.42;;;;;;;;;;4940075;29;20027;-79
2021/07/26 02:17:30;;;;;;;566.33;478.50;;;;;;;;;;4957555;29;20087;-79
2021/07/26 02:19:56;;;;;;;564.92;474.90;;;;;;;;;;4944669;29;20039;-79
2021/07/26 02:22:22;;;;;;;565.20;478.77;;;;;;;;;;4935096;29;20028;-79
2021/07/26 02:24:54;;;;;;;564.80;476.10;;;;;;;;;;4939813;29;20077;-79
2021/07/26 02:27:20;;;;;;;570.30;489.88;;;;;;;;;;4939962;29;20126;-79
2021/07/26 02:29:46;;;;;;;569.05;480.17;;;;;;;;;;4955766;29;20102;-79
2021/07/26 02:32:12;;;;;;;564.88;472.92;;;;;;;;;;4938951;29;20467;-80
2021/07/26 02:34:38;;;;;;;563.08;470.15;;;;;;;;;;4946643;29;20043;-79
2021/07/26 02:37:04;;;;;;;563.28;469.25;;;;;;;;;;4948580;29;20035;-80
2021/07/26 02:39:30;;;;;;;565.50;476.40;;;;;;;;;;4928652;29;20611;-80
2021/07/26 02:42:16;;;;;;;562.42;468.70;;;;;;;;;;4939436;29;20110;-79
2021/07/26 02:44:42;;;;;;;566.33;475.40;;;;;;;;;;4939449;29;20038;-79
2021/07/26 02:47:08;;;;;;;566.47;475.30;;;;;;;;;;4934605;29;20023;-79
2021/07/26 02:49:34;;;;;;;565.47;474.70;;;;;;;;;;4955018;28;20597;-79
2021/07/26 02:52:01;;;;;;;566.55;477.85;;;;;;;;;;4938263;29;20019;-80
2021/07/26 02:54:40;;;;;;;567.25;476.98;;;;;;;;;;4931318;29;20053;-79
2021/07/26 02:57:07;;;;;;;565.08;473.85;;;;;;;;;;4945366;29;20047;-79
2021/07/26 02:59:33;;;;;;;567.55;479.27;;;;;;;;;;4934974;29;20392;-80
2021/07/26 03:01:59;;;;;;;564.63;474.45;;;;;;;;;;4936205;29;20041;-79
2021/07/26 03:04:25;;;;;;;567.90;479.02;;;;;;;;;;4954112;29;20535;-78
2021/07/26 03:06:50;;;;;;;567.10;475.83;;;;;;;;;;4938883;29;20110;-79
2021/07/26 03:09:16;;;;;;;569.05;475.67;;;;;;;;;;4936867;29;20028;-79
2021/07/26 03:11:42;;;;;;;571.05;484.25;;;;;;;;;;4933478;29;20031;-79
2021/07/26 03:14:08;;;;;;;807.22;522.00;;;;;;;;;;4938902;29;20055;-79
2021/07/26 03:16:37;;;;;;;665.08;543.63;;;;;;;;;;4922340;29;20075;-79
2021/07/26 03:19:03;;;;;;;561.05;472.23;;;;;;;;;;4952523;29;20027;-79
2021/07/26 03:21:29;;;;;;;568.38;481.88;;;;;;;;;;4954183;29;20444;-79
2021/07/26 03:23:55;;;;;;;1044.97;528.58;;;;;;;;;;4955080;28;20031;-79
2021/07/26 03:26:21;;;;;;;567.25;479.40;;;;;;;;;;4955612;29;20027;-79
2021/07/26 03:29:18;;;;;;;572.80;481.20;;;;;;;;;;4955885;29;20048;-78
2021/07/26 03:31:44;;;;;;;568.28;477.00;;;;;;;;;;4938531;29;20019;-79
2021/07/26 03:34:10;;;;;;;570.80;481.08;;;;;;;;;;4950355;29;20035;-79
2021/07/26 03:36:36;;;;;;;597.60;475.75;;;;;;;;;;4954852;29;20110;-79
2021/07/26 03:39:02;;;;;;;560.90;466.38;;;;;;;;;;4936103;29;20035;-79
2021/07/26 03:41:28;;;;;;;577.70;492.90;;;;;;;;;;4938086;29;20027;-79
2021/07/26 03:43:54;;;;;;;568.03;475.42;;;;;;;;;;4955579;29;20042;-79
2021/07/26 03:46:20;;;;;;;587.45;501.13;;;;;;;;;;4951038;29;20039;-79
2021/07/26 03:48:46;;;;;;;604.85;538.05;;;;;;;;;;4954966;29;20102;-78
2021/07/26 03:51:12;;;;;;;575.50;491.83;;;;;;;;;;4953840;29;20034;-78
2021/07/26 03:53:51;;;;;;;564.67;470.42;;;;;;;;;;4937284;29;20031;-78
2021/07/26 03:56:17;;;;;;;572.38;482.15;;;;;;;;;;4955069;29;20043;-78
2021/07/26 03:58:43;;;;;;;1489.05;705.50;;;;;;;;;;4955119;29;20043;-78
2021/07/26 04:01:09;;;;;;;651.40;579.60;;;;;;;;;;4954217;29;20034;-78
2021/07/26 04:03:35;;;;;;;704.38;601.40;;;;;;;;;;4944111;29;20032;-79
2021/07/26 04:06:23;;;;;;;567.60;474.15;;;;;;;;;;4954957;29;20053;-78
2021/07/26 04:08:51;;;;;;;587.30;498.08;;;;;;;;;;4954719;29;20023;-79
2021/07/26 04:11:24;;;;;;;597.78;512.85;;;;;;;;;;4937577;29;20034;-78
2021/07/26 04:13:56;;;;;;;605.80;522.05;;;;;;;;;;4952251;29;20035;-78
2021/07/26 04:16:22;;;;;;;606.35;522.33;;;;;;;;;;4936859;29;20031;-78
2021/07/26 04:18:51;;;;;;;609.50;521.60;;;;;;;;;;4952484;29;20616;-79
2021/07/26 04:21:17;;;;;;;616.50;535.60;;;;;;;;;;4953861;29;20027;-78
2021/07/26 04:23:43;;;;;;;631.50;551.38;;;;;;;;;;4950980;29;20479;-78
2021/07/26 04:26:09;;;;;;;613.70;535.03;;;;;;;;;;4936986;29;20020;-78
2021/07/26 04:28:36;;;;;;;618.80;536.95;;;;;;;;;;4937411;29;20026;-78
2021/07/26 04:34:05;;;;;;;587.90;496.35;;;;;;;;;;4948081;29;20082;-78
2021/07/26 04:36:31;;;;;;;570.38;484.98;;;;;;;;;;4937237;29;20027;-79
2021/07/26 04:38:57;;;;;;;616.70;494.55;;;;;;;;;;4950192;29;20119;-78
2021/07/26 04:41:23;;;;;;;559.92;464.77;;;;;;;;;;4929382;29;20035;-78
2021/07/26 04:43:52;;;;;;;555.50;456.90;;;;;;;;;;4932274;29;20399;-78
2021/07/26 04:46:18;;;;;;;559.58;468.15;;;;;;;;;;4934499;29;20379;-79
2021/07/26 04:48:44;;;;;;;560.08;471.35;;;;;;;;;;4954035;29;20020;-78
2021/07/26 04:51:10;;;;;;;560.08;469.13;;;;;;;;;;4937202;29;20011;-79
2021/07/26 04:53:36;;;;;;;551.70;457.70;;;;;;;;;;4950632;29;20094;-79
2021/07/26 04:56:02;;;;;;;540.42;445.45;;;;;;;;;;4924593;29;20051;-78
2021/07/26 04:58:28;;;;;;;535.00;441.75;;;;;;;;;;4953623;29;20046;-78
2021/07/26 05:00:54;;;;;;;553.85;460.02;;;;;;;;;;4953787;29;20452;-78
2021/07/26 05:03:20;;;;;;;551.65;457.58;;;;;;;;;;4935017;29;20401;-78
2021/07/26 05:05:46;;;;;;;551.42;461.05;;;;;;;;;;4940350;29;20078;-78
2021/07/26 05:08:14;;;;;;;544.00;450.13;;;;;;;;;;4936790;29;20110;-78
2021/07/26 05:10:40;;;;;;;544.53;454.73;;;;;;;;;;4952112;29;20027;-78
2021/07/26 05:13:06;;;;;;;553.47;462.48;;;;;;;;;;4947031;29;20392;-78
2021/07/26 05:15:32;;;;;;;550.97;461.38;;;;;;;;;;4936868;29;20019;-76
2021/07/26 05:17:58;;;;;;;552.85;458.88;;;;;;;;;;4926437;29;20460;-77
2021/07/26 05:20:42;;;;;;;556.00;465.85;;;;;;;;;;4934373;29;20476;-77
2021/07/26 05:23:12;;;;;;;554.35;462.02;;;;;;;;;;4935030;29;20031;-78
2021/07/26 05:25:47;;;;;;;553.88;456.15;;;;;;;;;;4952071;29;20034;-77
2021/07/26 05:28:13;;;;;;;555.88;462.33;;;;;;;;;;4936602;29;20086;-77
2021/07/26 05:30:39;;;;;;;554.55;462.55;;;;;;;;;;4940882;29;20032;-77
2021/07/26 05:33:21;;;;;;;555.13;464.73;;;;;;;;;;4937001;29;20033;-78
2021/07/26 05:35:47;;;;;;;553.92;463.65;;;;;;;;;;4926346;29;20027;-77
2021/07/26 05:38:13;;;;;;;553.72;464.42;;;;;;;;;;4939299;29;20070;-80
2021/07/26 05:40:39;;;;;;;554.20;463.17;;;;;;;;;;4925148;29;20035;-78
2021/07/26 05:43:05;;;;;;;554.70;467.13;;;;;;;;;;4945138;29;20657;-78
2021/07/26 05:45:37;;;;;;;555.90;470.70;;;;;;;;;;4946769;28;20106;-78
2021/07/26 05:48:03;;;;;;;554.45;467.17;;;;;;;;;;4939515;28;20042;-79
2021/07/26 05:50:29;;;;;;;566.83;484.25;;;;;;;;;;4929026;29;20037;-79
2021/07/26 05:52:55;;;;;;;551.22;464.88;;;;;;;;;;4950278;28;20027;-79
2021/07/26 05:55:21;;;;;;;538.90;455.08;;;;;;;;;;4933664;28;20082;-78
2021/07/26 05:57:47;;;;;;;537.50;450.65;;;;;;;;;;4957021;28;20070;-81
2021/07/26 06:00:24;;;;;;;528.42;438.50;;;;;;;;;;4936662;28;20027;-77
2021/07/26 06:02:50;;;;;;;518.72;436.70;;;;;;;;;;4956892;29;20027;-77
2021/07/26 06:05:16;;;;;;;514.17;431.77;;;;;;;;;;4939720;29;20086;-83
2021/07/26 06:07:42;;;;;;;515.33;440.83;;;;;;;;;;4954180;29;20031;-77
2021/07/26 06:10:08;;;;;;;513.40;446.58;;;;;;;;;;4951907;29;20696;-77
2021/07/26 06:12:34;;;;;;;549.35;468.77;;;;;;;;;;4935284;29;20021;-77
2021/07/26 06:15:00;;;;;;;554.22;477.40;;;;;;;;;;4933663;29;20086;-79
2021/07/26 06:17:26;;;;;;;562.05;482.63;;;;;;;;;;4933741;29;20038;-80
2021/07/26 06:19:52;;;;;;;570.83;496.02;;;;;;;;;;4951757;29;20031;-79
2021/07/26 06:22:18;;;;;;;564.20;487.90;;;;;;;;;;4933371;29;20342;-80
2021/07/26 06:24:44;;;;;;;563.17;478.25;;;;;;;;;;4934193;29;20027;-80
2021/07/26 06:27:10;;;;;;;561.28;477.70;;;;;;;;;;4935215;29;20062;-78
2021/07/26 06:29:36;;;;;;;558.13;477.85;;;;;;;;;;4954662;29;20716;-77
2021/07/26 06:32:02;;;;;;;563.60;489.58;;;;;;;;;;4952056;29;20383;-79
2021/07/26 06:34:29;;;;;;;563.03;486.88;;;;;;;;;;4934452;29;20035;-80
2021/07/26 06:36:54;;;;;;;564.45;488.90;;;;;;;;;;4935244;29;20118;-78
2021/07/26 06:39:20;;;;;;;562.92;486.60;;;;;;;;;;4951442;28;20114;-77
2021/07/26 06:41:46;;;;;;;560.05;483.55;;;;;;;;;;4934287;29;20034;-78
2021/07/26 06:44:12;;;;;;;565.90;494.60;;;;;;;;;;4949847;28;20118;-77
2021/07/26 06:46:39;;;;;;;560.90;481.90;;;;;;;;;;4951927;29;20094;-77
2021/07/26 06:49:05;;;;;;;567.85;498.05;;;;;;;;;;4934875;29;20031;-78
2021/07/26 06:51:31;;;;;;;563.05;491.48;;;;;;;;;;4948925;29;20035;-77
2021/07/26 06:53:57;;;;;;;568.92;502.02;;;;;;;;;;4939451;29;20039;-76
2021/07/26 06:56:23;;;;;;;586.70;521.95;;;;;;;;;;4939262;29;20134;-79
2021/07/26 06:59:08;;;;;;;588.60;523.65;;;;;;;;;;4947048;28;20031;-77
2021/07/26 07:01:34;;;;;;;578.78;513.28;;;;;;;;;;4956975;29;20028;-78
2021/07/26 07:04:00;;;;;;;560.58;490.48;;;;;;;;;;4932722;29;20081;-76
2021/07/26 07:06:27;;;;;;;558.42;490.33;;;;;;;;;;4956808;29;20034;-77
2021/07/26 07:08:54;;;;;;;557.83;488.52;;;;;;;;;;4956660;29;20119;-77
2021/07/26 07:14:34;;;;;;;563.22;499.00;;;;;;;;;;4957036;29;20078;-76
2021/07/26 07:17:00;;;;;;;571.40;508.42;;;;;;;;;;4954423;29;20023;-76
2021/07/26 07:19:26;;;;;;;575.70;512.83;;;;;;;;;;4951730;29;20038;-76
2021/07/26 07:21:52;;;;;;;590.05;526.25;;;;;;;;;;4931450;29;20125;-77
2021/07/26 07:24:18;;;;;;;583.90;520.17;;;;;;;;;;4933850;29;20043;-77
2021/07/26 07:26:44;;;;;;;565.55;503.85;;;;;;;;;;4932725;29;20027;-79
2021/07/26 07:29:11;;;;;;;573.33;510.73;;;;;;;;;;4948188;29;20483;-77
2021/07/26 07:31:37;;;;;;;575.50;512.75;;;;;;;;;;4950931;29;20055;-78
2021/07/26 07:34:04;;;;;;;570.85;508.33;;;;;;;;;;4931039;29;20066;-79
2021/07/26 07:36:30;;;;;;;573.47;510.77;;;;;;;;;;4948636;29;20078;-79
2021/07/26 07:38:56;;;;;;;580.90;518.00;;;;;;;;;;4932772;29;20476;-79
2021/07/26 07:41:23;;;;;;;569.35;506.92;;;;;;;;;;4931186;29;20063;-81
2021/07/26 07:43:49;;;;;;;575.72;513.35;;;;;;;;;;4934440;29;20107;-79
2021/07/26 07:46:17;;;;;;;573.28;510.95;;;;;;;;;;4951813;29;20045;-76
2021/07/26 07:48:43;;;;;;;580.75;518.20;;;;;;;;;;4933474;29;20023;-79
2021/07/26 07:51:09;;;;;;;580.67;517.80;;;;;;;;;;4934512;29;20035;-85
2021/07/26 07:53:36;;;;;;;575.08;512.55;;;;;;;;;;4948567;29;20074;-83
2021/07/26 07:56:03;;;;;;;589.50;526.40;;;;;;;;;;4931725;28;20030;-76
2021/07/26 07:58:29;;;;;;;583.55;520.65;;;;;;;;;;4932502;29;20130;-78
2021/07/26 08:00:58;;;;;;;574.75;512.47;;;;;;;;;;4930761;29;20058;-79
2021/07/26 08:03:26;;;;;;;573.20;510.75;;;;;;;;;;4948813;29;20028;-77
2021/07/26 08:05:52;;;;;;;578.78;515.92;;;;;;;;;;4948501;29;20031;-83
2021/07/26 08:08:19;;;;;;;581.67;518.85;;;;;;;;;;4938138;29;20105;-80
2021/07/26 08:10:45;;;;;;;587.80;524.78;;;;;;;;;;4937305;29;20027;-85
2021/07/26 08:13:11;;;;;;;574.85;512.42;;;;;;;;;;4938277;29;20081;-81
2021/07/26 08:15:37;;;;;;;584.67;521.80;;;;;;;;;;4937939;29;20137;-82
2021/07/26 08:18:22;;;;;;;578.50;515.90;;;;;;;;;;4938237;29;20027;-86
2021/07/26 08:20:48;;;;;;;576.28;513.55;;;;;;;;;;4937844;29;20034;-79
2021/07/26 08:23:14;;;;;;;575.75;513.15;;;;;;;;;;4936434;29;20024;-79
2021/07/26 08:25:40;;;;;;;575.33;512.85;;;;;;;;;;4951272;29;20142;-82
2021/07/26 08:28:06;;;;;;;574.15;511.58;;;;;;;;;;4929899;29;20051;-80
2021/07/26 08:30:34;;;;;;;576.38;513.67;;;;;;;;;;4928560;29;20129;-80
2021/07/26 08:33:01;;;;;;;567.25;504.88;;;;;;;;;;4928653;29;20329;-82
2021/07/26 08:35:29;;;;;;;588.28;525.42;;;;;;;;;;4946413;29;20114;-84
2021/07/26 08:37:55;;;;;;;586.72;524.00;;;;;;;;;;4947717;29;20018;-82
2021/07/26 08:40:22;;;;;;;583.33;520.75;;;;;;;;;;4931326;29;20492;-84
2021/07/26 08:42:48;;;;;;;593.17;530.30;;;;;;;;;;4942687;29;20031;-84
2021/07/26 08:45:14;;;;;;;595.50;532.53;;;;;;;;;;4932672;29;20110;-84
2021/07/26 08:47:41;;;;;;;594.20;531.40;;;;;;;;;;4934742;29;20488;-74
2021/07/26 08:50:09;;;;;;;596.78;534.00;;;;;;;;;;4929811;29;20046;-81
2021/07/26 08:52:38;;;;;;;596.60;534.03;;;;;;;;;;4929449;29;20023;-82
2021/07/26 08:55:05;;;;;;;582.58;520.13;;;;;;;;;;4950643;29;20063;-79
2021/07/26 08:57:31;;;;;;;595.55;532.42;;;;;;;;;;4935183;29;20081;-79
2021/07/26 08:59:57;;;;;;;616.55;552.30;;;;;;;;;;4931591;29;20652;-79
2021/07/26 09:02:23;;;;;;;620.13;554.97;;;;;;;;;;4934004;29;20037;-82
2021/07/26 09:04:49;;;;;;;600.58;537.40;;;;;;;;;;4933432;29;20114;-83
2021/07/26 09:07:24;;;;;;;607.53;544.03;;;;;;;;;;4931028;29;20472;-79
2021/07/26 09:09:50;;;;;;;623.15;558.55;;;;;;;;;;4949784;29;20106;-80
2021/07/26 09:12:43;;;;;;;624.53;559.67;;;;;;;;;;4931973;29;20122;-80
2021/07/26 09:15:28;;;;;;;630.60;565.28;;;;;;;;;;4944112;29;20043;-79
2021/07/26 09:17:54;;;;;;;643.03;577.30;;;;;;;;;;4935005;29;20163;-78
2021/07/26 09:20:21;;;;;;;638.95;573.45;;;;;;;;;;4932315;29;20174;-78
2021/07/26 09:22:47;;;;;;;651.95;586.13;;;;;;;;;;4932250;29;20033;-82
2021/07/26 09:25:15;;;;;;;641.00;575.80;;;;;;;;;;4947936;29;20027;-81
2021/07/26 09:27:59;;;;;;;656.53;590.63;;;;;;;;;;4929191;29;20058;-76
2021/07/26 09:30:26;;;;;;;614.53;551.50;;;;;;;;;;4951118;29;20515;-79
2021/07/26 09:32:52;;;;;;;609.90;547.00;;;;;;;;;;4933519;29;20029;-81
2021/07/26 09:35:23;;;;;;;617.72;554.42;;;;;;;;;;4934457;29;20033;-76
2021/07/26 09:37:56;;;;;;;615.58;552.53;;;;;;;;;;4930572;29;20031;-77
2021/07/26 09:40:23;;;;;;;621.33;558.25;;;;;;;;;;4949962;29;20124;-77
2021/07/26 09:42:49;;;;;;;631.05;567.72;;;;;;;;;;4937598;29;20031;-79
2021/07/26 09:45:25;;;;;;;1355.03;881.92;;;;;;;;;;4934172;29;20678;-80
2021/07/26 09:48:05;;;;;;;1999.90;999.90;;;;;;;;;;4935575;29;20050;-77
2021/07/26 09:50:34;;;;;;;952.93;854.83;;;;;;;;;;4937940;29;20030;-80
2021/07/26 09:53:21;;;;;;;726.08;654.42;;;;;;;;;;4935037;29;20027;-80
2021/07/26 09:55:48;;;;;;;717.40;642.92;;;;;;;;;;4938218;29;20090;-78
2021/07/26 09:58:15;;;;;;;1999.90;999.90;;;;;;;;;;4946895;29;20047;-80
2021/07/26 10:00:42;;;;;;;1999.90;999.90;;;;;;;;;;4929106;29;20074;-79
2021/07/26 10:06:13;;;;;;;1051.13;949.75;;;;;;;;;;4953120;29;20039;-78
2021/07/26 10:08:39;;;;;;;1999.90;999.90;;;;;;;;;;4954547;29;20070;-81
2021/07/26 10:11:09;;;;;;;1999.90;999.90;;;;;;;;;;4932461;29;20023;-78
2021/07/26 10:13:35;;;;;;;1999.90;999.90;;;;;;;;;;4937320;29;20616;-81
2021/07/26 10:16:07;;;;;;;1999.90;999.90;;;;;;;;;;4931005;29;20476;-78
2021/07/26 10:18:33;;;;;;;1999.90;999.90;;;;;;;;;;4954924;29;20054;-81
2021/07/26 10:21:01;;;;;;;1999.90;999.90;;;;;;;;;;4931132;29;20110;-80
2021/07/26 10:23:52;;;;;;;650.10;586.28;;;;;;;;;;4935092;29;20067;-78
2021/07/26 10:26:22;;;;;;;639.75;576.00;;;;;;;;;;4934883;29;20061;-81
2021/07/26 10:28:52;;;;;;;628.33;564.73;;;;;;;;;;4953578;28;20050;-82
2021/07/26 10:31:30;;;;;;;628.10;564.58;;;;;;;;;;4943589;29;20275;-82
2021/07/26 10:34:01;;;;;;;616.15;553.08;;;;;;;;;;4931229;29;20082;-80
2021/07/26 10:36:43;;;;;;;627.13;563.88;;;;;;;;;;4931602;29;20031;-81
2021/07/26 10:39:09;;;;;;;635.45;572.17;;;;;;;;;;4936051;29;20367;-79
2021/07/26 10:41:45;;;;;;;641.25;578.20;;;;;;;;;;4935427;29;20023;-83
2021/07/26 10:44:11;;;;;;;658.08;594.40;;;;;;;;;;4933676;29;20146;-81
2021/07/26 10:47:09;;;;;;;657.75;593.88;;;;;;;;;;4947439;28;20115;-78
2021/07/26 10:49:45;;;;;;;642.35;579.22;;;;;;;;;;4951289;29;20027;-78
2021/07/26 10:52:37;;;;;;;637.28;568.67;;;;;;;;;;4929478;29;20361;-80
2021/07/26 10:55:04;;;;;;;620.28;557.50;;;;;;;;;;4945345;29;20032;-77
2021/07/26 10:57:44;;;;;;;619.72;556.85;;;;;;;;;;4952098;29;20059;-81
2021/07/26 11:00:13;;;;;;;625.30;561.63;;;;;;;;;;4952655;29;20031;-80
2021/07/26 11:02:40;;;;;;;611.40;548.65;;;;;;;;;;4934060;29;20027;-77
2021/07/26 11:05:24;;;;;;;615.47;552.63;;;;;;;;;;4934463;29;20039;-79
2021/07/26 11:08:23;;;;;;;699.25;610.65;;;;;;;;;;4950057;29;20472;-81
2021/07/26 11:10:50;;;;;;;643.17;579.97;;;;;;;;;;4947504;29;20451;-80
2021/07/26 11:13:17;;;;;;;646.58;583.55;;;;;;;;;;4953494;29;20027;-79
2021/07/26 11:15:45;;;;;;;659.30;595.83;;;;;;;;;;4952406;28;20147;-80
2021/07/26 11:21:21;;;;;;;645.10;581.90;;;;;;;;;;4956245;29;20042;-77
2021/07/26 11:23:50;;;;;;;676.75;609.13;;;;;;;;;;4934751;29;20039;-82
2021/07/26 11:26:16;;;;;;;711.30;646.43;;;;;;;;;;4950580;29;20031;-82
2021/07/26 11:28:42;;;;;;;725.22;660.53;;;;;;;;;;4938362;29;20039;-78
2021/07/26 11:31:11;;;;;;;729.95;665.22;;;;;;;;;;4939609;29;20082;-83
2021/07/26 11:33:38;;;;;;;703.33;639.15;;;;;;;;;;4954854;29;20027;-81
2021/07/26 11:36:07;;;;;;;710.70;645.20;;;;;;;;;;4939348;29;20031;-82
2021/07/26 11:38:53;;;;;;;692.83;627.65;;;;;;;;;;4939757;29;20443;-82
2021/07/26 11:44:27;;;;;;;661.33;597.42;;;;;;;;;;4954147;28;20159;-85
2021/07/26 11:46:53;;;;;;;652.67;588.47;;;;;;;;;;4938237;29;20375;-83
2021/07/26 11:49:19;;;;;;;639.25;575.63;;;;;;;;;;4934884;29;20082;-83
2021/07/26 11:51:45;;;;;;;637.55;573.88;;;;;;;;;;4936168;29;20399;-83
2021/07/26 11:54:39;;;;;;;641.55;578.00;;;;;;;;;;4949338;29;20090;-76
2021/07/26 11:57:05;;;;;;;646.72;583.08;;;;;;;;;;4960993;28;20047;-82
2021/07/26 11:59:34;;;;;;;642.28;578.90;;;;;;;;;;4939973;29;20126;-75
2021/07/26 12:02:04;;;;;;;661.13;597.10;;;;;;;;;;4954924;28;20023;-78
2021/07/26 12:04:30;;;;;;;679.90;615.35;;;;;;;;;;4937615;29;20051;-81
2021/07/26 12:07:15;;;;;;;673.25;609.17;;;;;;;;;;4935300;28;20028;-84
2021/07/26 12:09:50;;;;;;;669.70;605.63;;;;;;;;;;4933486;29;20086;-85
2021/07/26 12:12:17;;;;;;;650.83;587.55;;;;;;;;;;4965631;28;20026;-85
2021/07/26 12:14:44;;;;;;;646.80;583.45;;;;;;;;;;4939538;29;20480;-84
2021/07/26 12:17:24;;;;;;;653.53;589.85;;;;;;;;;;4951529;28;20027;-82
2021/07/26 12:20:00;;;;;;;684.58;619.92;;;;;;;;;;4947210;28;20118;-82
2021/07/26 12:22:26;;;;;;;717.30;652.22;;;;;;;;;;4936512;29;20505;-81
2021/07/26 12:25:00;;;;;;;716.22;651.28;;;;;;;;;;4931156;29;20024;-82
2021/07/26 12:27:35;;;;;;;706.00;641.22;;;;;;;;;;4948715;29;20027;-83
2021/07/26 12:30:03;;;;;;;696.58;632.22;;;;;;;;;;4954665;28;20015;-81
2021/07/26 12:32:29;;;;;;;681.25;617.40;;;;;;;;;;4954074;28;20624;-79
2021/07/26 12:35:11;;;;;;;746.38;668.08;;;;;;;;;;4964335;28;20037;-76
2021/07/26 12:38:12;;;;;;;815.05;742.17;;;;;;;;;;4960796;28;20110;-83
2021/07/26 12:40:39;;;;;;;896.25;817.17;;;;;;;;;;4890334;29;20103;-74
2021/07/26 12:43:19;;;;;;;885.35;807.60;;;;;;;;;;4941894;29;20035;-79
2021/07/26 12:46:01;;;;;;;942.63;859.53;;;;;;;;;;4948585;29;20027;-82
2021/07/26 12:48:31;;;;;;;898.40;817.70;;;;;;;;;;4957141;28;20114;-83
2021/07/26 12:50:58;;;;;;;848.45;770.90;;;;;;;;;;4928926;29;20075;-84
2021/07/26 12:53:25;;;;;;;1505.20;996.67;;;;;;;;;;4929982;29;20039;-85
2021/07/26 12:55:51;;;;;;;806.55;733.83;;;;;;;;;;4946424;28;20023;-85
2021/07/26 12:58:17;;;;;;;1244.55;807.33;;;;;;;;;;4942324;29;20047;-79
2021/07/26 13:00:46;;;;;;;736.58;664.53;;;;;;;;;;4934279;29;20058;-79
2021/07/26 13:03:13;;;;;;;731.67;666.63;;;;;;;;;;4948026;29;20030;-87
2021/07/26 13:05:40;;;;;;;738.40;673.45;;;;;;;;;;4950038;29;20034;-85
2021/07/26 13:08:06;;;;;;;740.22;675.05;;;;;;;;;;4936494;29;20027;-85
2021/07/26 13:10:32;;;;;;;710.25;646.03;;;;;;;;;;4952943;28;20050;-84
2021/07/26 13:13:18;;;;;;;706.10;641.75;;;;;;;;;;4933779;29;20724;-78
2021/07/26 13:15:45;;;;;;;705.63;640.95;;;;;;;;;;4944253;29;20071;-85
2021/07/26 13:18:11;;;;;;;684.33;620.22;;;;;;;;;;4938138;29;20031;-89
2021/07/26 13:20:37;;;;;;;680.15;616.00;;;;;;;;;;4948032;29;20097;-83
2021/07/26 13:23:04;;;;;;;660.90;596.92;;;;;;;;;;4947752;29;20038;-76
2021/07/26 13:25:40;;;;;;;660.53;596.50;;;;;;;;;;4947360;29;20377;-86
2021/07/26 13:28:06;;;;;;;656.17;592.20;;;;;;;;;;4951291;29;20106;-75
2021/07/26 13:30:33;;;;;;;667.25;602.88;;;;;;;;;;4929393;29;20023;-88
2021/07/26 13:32:59;;;;;;;684.75;620.42;;;;;;;;;;4937093;29;20082;-82
2021/07/26 14:19:15;;;;;;;628.67;564.95;;;;;;;;;;4950117;28;20702;-77
2021/07/26 14:21:41;;;;;;;614.57;551.60;;;;;;;;;;4936820;29;20115;-77
2021/07/26 14:24:07;;;;;;;610.78;547.92;;;;;;;;;;4935584;29;20585;-76
2021/07/26 14:26:33;;;;;;;614.60;551.42;;;;;;;;;;4956025;29;20090;-76
2021/07/26 14:29:00;;;;;;;614.78;551.47;;;;;;;;;;4933322;29;20031;-78
2021/07/26 14:31:26;;;;;;;610.17;546.72;;;;;;;;;;4937222;29;20027;-81
2021/07/26 14:33:52;;;;;;;618.80;554.90;;;;;;;;;;4936307;28;20095;-80
2021/07/26 14:36:24;;;;;;;618.15;554.35;;;;;;;;;;4954774;28;20043;-79
2021/07/26 14:38:50;;;;;;;604.42;541.17;;;;;;;;;;4936229;29;20074;-82
2021/07/26 14:41:18;;;;;;;613.17;549.50;;;;;;;;;;4950015;29;20144;-80
2021/07/26 14:43:44;;;;;;;612.60;549.10;;;;;;;;;;4947050;28;20122;-80
2021/07/26 14:46:10;;;;;;;610.65;547.33;;;;;;;;;;4935964;29;20684;-84
2021/07/26 14:48:56;;;;;;;617.03;553.30;;;;;;;;;;4938517;29;20936;-80
2021/07/26 14:51:22;;;;;;;609.25;545.80;;;;;;;;;;4950006;29;20876;-79
2021/07/26 14:53:48;;;;;;;614.03;550.38;;;;;;;;;;4939449;29;20025;-82
2021/07/26 14:56:14;;;;;;;640.92;551.53;;;;;;;;;;4953078;29;20102;-80
2021/07/26 14:58:40;;;;;;;613.88;550.33;;;;;;;;;;4945132;29;20039;-83
2021/07/26 15:01:18;;;;;;;607.13;543.83;;;;;;;;;;4953697;29;20062;-79
2021/07/26 15:03:44;;;;;;;614.53;551.03;;;;;;;;;;4927422;29;20028;-83
2021/07/26 15:06:10;;;;;;;611.28;547.83;;;;;;;;;;4952762;29;20094;-84